createdAt,value
2019-04-16T00:01:03.635Z,14.13
2019-04-16T00:03:33.278Z,13.47
2019-04-16T00:06:04.359Z,14.63
2019-04-16T00:08:35.438Z,12.30
2019-04-16T00:11:09.668Z,12.50
2019-04-16T00:13:57.207Z,13.10
2019-04-16T00:16:26.698Z,14.90
2019-04-16T00:18:57.860Z,15.87
2019-04-16T00:21:31.674Z,13.57
2019-04-16T00:24:18.155Z,15.60
2019-04-16T00:26:46.746Z,15.27
2019-04-16T00:29:16.203Z,14.70
2019-04-16T00:31:47.294Z,12.93
2019-04-16T00:34:16.752Z,15.93
2019-04-16T00:36:48.663Z,16.70
2019-04-16T00:39:17.380Z,19.83
2019-04-16T00:41:46.859Z,14.93
2019-04-16T00:44:16.376Z,15.90
2019-04-16T00:46:45.876Z,20.03
2019-04-16T00:49:15.605Z,16.10
2019-04-16T00:51:45.496Z,16.00
2019-04-16T00:54:14.947Z,15.80
2019-04-16T00:56:46.752Z,16.10
2019-04-16T00:59:15.594Z,17.00
2019-04-16T01:01:45.114Z,15.07
2019-04-16T01:04:14.602Z,17.87
2019-04-16T01:06:44.047Z,17.20
2019-04-16T01:09:13.497Z,16.73
2019-04-16T01:11:42.973Z,17.30
2019-04-16T01:14:12.426Z,17.37
2019-04-16T01:16:41.862Z,17.43
2019-04-16T01:19:11.354Z,20.00
2019-04-16T01:21:44.427Z,19.00
2019-04-16T01:24:12.025Z,21.93
2019-04-16T01:26:41.486Z,17.07
2019-04-16T01:29:17.211Z,17.80
2019-04-16T01:31:54.069Z,19.03
2019-04-16T01:34:37.021Z,17.60
2019-04-16T01:37:25.792Z,18.87
2019-04-16T01:39:58.917Z,19.10
2019-04-16T01:42:28.467Z,17.60
2019-04-16T01:44:59.924Z,16.57
2019-04-16T01:47:29.124Z,15.07
2019-04-16T01:49:58.591Z,15.10
2019-04-16T01:52:28.046Z,17.50
2019-04-16T01:54:57.501Z,18.00
2019-04-16T01:57:28.346Z,15.80
2019-04-16T01:59:58.153Z,17.13
2019-04-16T02:02:27.670Z,16.97
2019-04-16T02:04:57.153Z,15.63
2019-04-16T02:07:27.972Z,16.50
2019-04-16T02:09:57.754Z,22.10
2019-04-16T02:12:27.279Z,19.80
2019-04-16T02:14:56.715Z,17.13
2019-04-16T02:17:26.970Z,16.40
2019-04-16T02:19:57.308Z,19.37
2019-04-16T02:22:26.759Z,18.93
2019-04-16T02:24:56.233Z,19.90
2019-04-16T02:27:26.233Z,15.90
2019-04-16T02:29:58.588Z,16.80
2019-04-16T02:32:27.771Z,17.50
2019-04-16T02:34:57.272Z,16.50
2019-04-16T02:37:26.734Z,17.87
2019-04-16T02:39:56.153Z,17.80
2019-04-16T02:42:30.754Z,19.60
2019-04-16T02:44:56.782Z,20.20
2019-04-16T02:47:26.306Z,20.33
2019-04-16T02:49:57.755Z,21.13
2019-04-16T02:52:31.580Z,18.63
2019-04-16T02:55:19.147Z,16.53
2019-04-16T02:58:05.536Z,16.40
2019-04-16T03:00:52.694Z,15.67
2019-04-16T03:03:26.772Z,17.00
2019-04-16T03:06:00.673Z,18.33
2019-04-16T03:08:28.534Z,16.47
2019-04-16T03:10:58.772Z,14.83
2019-04-16T03:13:28.775Z,14.97
2019-04-16T03:16:06.350Z,15.30
2019-04-16T03:18:38.776Z,16.00
2019-04-16T03:21:08.227Z,14.30
2019-04-16T03:23:37.862Z,15.57
2019-04-16T03:26:07.442Z,14.57
2019-04-16T03:28:36.889Z,14.40
2019-04-16T03:31:08.740Z,15.10
2019-04-16T03:33:37.543Z,15.10
2019-04-16T03:36:06.993Z,14.80
2019-04-16T03:38:38.709Z,14.10
2019-04-16T03:41:07.743Z,14.60
2019-04-16T03:43:37.195Z,14.40
2019-04-16T03:46:06.673Z,15.23
2019-04-16T03:48:37.878Z,13.30
2019-04-16T03:51:07.316Z,14.37
2019-04-16T03:53:36.772Z,13.73
2019-04-16T03:56:06.251Z,13.40
2019-04-16T03:58:38.525Z,13.67
2019-04-16T04:01:07.023Z,15.30
2019-04-16T04:03:36.535Z,14.13
2019-04-16T04:06:06.857Z,14.23
2019-04-16T04:08:37.225Z,13.70
2019-04-16T04:11:10.158Z,14.60
2019-04-16T04:13:37.886Z,12.50
2019-04-16T04:16:07.393Z,13.20
2019-04-16T04:18:36.939Z,14.00
2019-04-16T04:21:06.387Z,13.63
2019-04-16T04:23:35.848Z,13.10
2019-04-16T04:26:08.300Z,14.50
2019-04-16T04:28:36.572Z,12.90
2019-04-16T04:31:06.019Z,13.03
2019-04-16T04:33:41.597Z,12.67
2019-04-16T04:36:10.708Z,13.53
2019-04-16T04:38:40.897Z,15.33
2019-04-16T04:41:10.535Z,13.83
2019-04-16T04:43:40.043Z,13.93
2019-04-16T04:46:13.508Z,13.40
2019-04-16T04:48:40.696Z,16.00
2019-04-16T04:51:10.163Z,14.17
2019-04-16T04:53:39.680Z,17.03
2019-04-16T04:56:09.636Z,18.10
2019-04-16T04:58:39.101Z,17.67
2019-04-16T05:01:09.531Z,13.50
2019-04-16T05:04:02.040Z,18.37
2019-04-16T05:06:32.106Z,14.47
2019-04-16T05:09:01.557Z,18.17
2019-04-16T05:11:31.026Z,15.83
2019-04-16T05:14:00.482Z,12.10
2019-04-16T05:16:31.536Z,16.57
2019-04-16T05:19:01.177Z,14.30
2019-04-16T05:21:30.724Z,12.60
2019-04-16T05:24:00.235Z,13.47
2019-04-16T05:26:29.726Z,12.50
2019-04-16T05:29:00.807Z,13.90
2019-04-16T05:31:31.219Z,12.57
2019-04-16T05:34:02.429Z,18.10
2019-04-16T05:36:32.043Z,12.53
2019-04-16T05:39:03.655Z,12.70
2019-04-16T05:41:32.682Z,15.00
2019-04-16T05:44:02.199Z,18.40
2019-04-16T05:46:31.645Z,12.90
2019-04-16T05:49:01.124Z,17.50
2019-04-16T05:51:31.468Z,14.00
2019-04-16T05:54:03.230Z,15.13
2019-04-16T05:56:37.151Z,14.17
2019-04-16T05:59:06.607Z,16.13
2019-04-16T06:01:46.603Z,10.90
2019-04-16T06:04:16.040Z,15.47
2019-04-16T06:06:45.485Z,16.27
2019-04-16T06:09:14.971Z,15.50
2019-04-16T06:11:44.433Z,13.93
2019-04-16T06:14:21.062Z,18.53
2019-04-16T06:17:08.544Z,16.17
2019-04-16T06:19:54.819Z,15.50
2019-04-16T06:22:30.107Z,18.13
2019-04-16T06:25:18.131Z,15.00
2019-04-16T06:27:52.079Z,14.53
2019-04-16T06:30:33.775Z,18.00
2019-04-16T06:33:11.211Z,20.77
2019-04-16T06:35:48.052Z,13.93
2019-04-16T06:38:19.208Z,17.63
2019-04-16T06:40:56.271Z,15.83
2019-04-16T06:43:27.486Z,14.50
2019-04-16T06:46:08.382Z,20.30
2019-04-16T06:48:52.227Z,16.23
2019-04-16T06:51:32.385Z,12.30
2019-04-16T06:54:06.674Z,17.10
2019-04-16T06:56:41.107Z,15.07
2019-04-16T06:59:30.729Z,18.90
2019-04-16T07:02:02.075Z,17.10
2019-04-16T07:04:49.289Z,14.80
2019-04-16T07:07:40.302Z,18.37
2019-04-16T07:10:11.505Z,16.20
2019-04-16T07:12:41.049Z,17.47
2019-04-16T07:15:11.632Z,18.73
2019-04-16T07:17:41.082Z,17.17
2019-04-16T07:20:13.450Z,15.13
2019-04-16T07:22:42.248Z,16.20
2019-04-16T07:25:11.766Z,18.60
2019-04-16T07:27:58.955Z,16.73
2019-04-16T07:30:39.961Z,15.10
2019-04-16T07:33:27.219Z,14.40
2019-04-16T07:36:04.655Z,17.40
2019-04-16T07:38:36.075Z,14.13
2019-04-16T07:41:12.963Z,12.83
2019-04-16T07:44:08.118Z,13.27
2019-04-16T07:46:35.480Z,13.03
2019-04-16T07:49:26.523Z,12.60
2019-04-16T07:52:00.599Z,12.90
2019-04-16T07:54:31.713Z,13.07
2019-04-16T07:57:01.180Z,14.10
2019-04-16T07:59:32.232Z,14.00
2019-04-16T08:02:01.865Z,14.60
2019-04-16T08:04:35.251Z,16.40
2019-04-16T08:07:02.531Z,15.53
2019-04-16T08:09:33.692Z,13.40
2019-04-16T08:12:03.514Z,12.60
2019-04-16T08:14:33.041Z,12.90
2019-04-16T08:17:02.622Z,14.07
2019-04-16T08:19:37.189Z,13.03
2019-04-16T08:22:03.458Z,13.33
2019-04-16T08:24:40.200Z,10.80
2019-04-16T08:27:10.821Z,11.10
2019-04-16T08:29:40.398Z,10.30
2019-04-16T08:32:12.761Z,10.37
2019-04-16T08:34:41.050Z,8.97
2019-04-16T08:37:10.532Z,9.37
2019-04-16T08:39:40.563Z,8.77
2019-04-16T08:42:10.074Z,8.57
2019-04-16T08:44:39.544Z,8.37
2019-04-16T08:47:12.128Z,8.83
2019-04-16T08:49:40.408Z,8.00
2019-04-16T08:52:10.979Z,6.80
2019-04-16T08:54:40.597Z,7.77
2019-04-16T08:57:10.073Z,7.27
2019-04-16T08:59:42.604Z,7.70
2019-04-16T09:02:10.792Z,6.87
2019-04-16T09:04:40.262Z,7.03
2019-04-16T09:07:13.139Z,7.53
2019-04-16T09:09:44.181Z,6.40
2019-04-16T09:12:13.862Z,4.50
2019-04-16T09:14:45.179Z,4.23
2019-04-16T09:17:19.149Z,6.10
2019-04-16T09:19:52.901Z,5.20
2019-04-16T09:22:22.349Z,7.37
2019-04-16T09:25:13.609Z,6.07
2019-04-16T09:27:42.501Z,6.00
2019-04-16T09:30:30.467Z,7.13
2019-04-16T09:33:07.102Z,6.10
2019-04-16T09:35:47.363Z,6.00
2019-04-16T09:38:21.019Z,6.47
2019-04-16T09:41:08.058Z,6.10
2019-04-16T09:43:40.383Z,6.67
2019-04-16T09:46:12.933Z,6.70
2019-04-16T09:48:41.187Z,7.57
2019-04-16T09:51:10.643Z,7.30
2019-04-16T09:53:40.948Z,6.83
2019-04-16T09:56:30.611Z,6.77
2019-04-16T09:59:07.459Z,6.60
2019-04-16T10:01:38.955Z,6.63
2019-04-16T10:04:10.047Z,7.00
2019-04-16T10:06:39.473Z,6.17
2019-04-16T10:09:09.157Z,7.17
2019-04-16T10:11:38.589Z,5.33
2019-04-16T10:14:08.205Z,5.50
2019-04-16T10:16:37.869Z,6.00
2019-04-16T10:19:08.438Z,5.00
2019-04-16T10:21:40.253Z,5.90
2019-04-16T10:24:20.043Z,5.63
2019-04-16T10:26:51.172Z,5.13
2019-04-16T10:29:22.450Z,6.10
2019-04-16T10:31:52.707Z,6.53
2019-04-16T10:34:22.360Z,5.90
2019-04-16T10:36:51.964Z,6.47
2019-04-16T10:39:35.014Z,6.67
2019-04-16T10:42:22.256Z,4.83
2019-04-16T10:44:56.342Z,6.90
2019-04-16T10:47:27.792Z,6.80
2019-04-16T10:50:07.765Z,7.10
2019-04-16T10:52:56.184Z,5.73
2019-04-16T10:55:39.820Z,6.37
2019-04-16T10:58:26.926Z,5.47
2019-04-16T11:01:06.991Z,5.80
2019-04-16T11:03:56.307Z,5.80
2019-04-16T11:06:30.268Z,5.33
2019-04-16T11:08:59.770Z,5.87
2019-04-16T11:11:29.288Z,6.90
2019-04-16T11:14:00.444Z,6.80
2019-04-16T11:16:29.942Z,5.67
2019-04-16T11:18:59.389Z,6.17
2019-04-16T11:21:28.874Z,6.20
2019-04-16T11:23:58.297Z,6.57
2019-04-16T11:26:27.827Z,5.47
2019-04-16T11:28:57.321Z,6.17
2019-04-16T11:31:27.304Z,6.33
2019-04-16T11:33:56.779Z,5.80
2019-04-16T11:36:30.542Z,6.87
2019-04-16T11:38:57.620Z,7.67
2019-04-16T11:41:27.073Z,6.30
2019-04-16T11:43:56.543Z,5.70
2019-04-16T11:46:26.079Z,5.10
2019-04-16T11:48:55.540Z,5.83
2019-04-16T11:51:24.964Z,6.63
2019-04-16T11:53:54.421Z,6.27
2019-04-16T11:56:23.905Z,7.10
2019-04-16T11:58:54.514Z,5.77
2019-04-16T12:01:29.318Z,6.40
2019-04-16T12:04:15.238Z,6.07
2019-04-16T12:07:05.095Z,6.43
2019-04-16T12:09:34.212Z,6.87
2019-04-16T12:12:14.108Z,6.73
2019-04-16T12:14:47.951Z,5.50
2019-04-16T12:17:24.775Z,6.13
2019-04-16T12:20:11.412Z,6.57
2019-04-16T12:22:45.905Z,6.03
2019-04-16T12:25:20.927Z,6.10
2019-04-16T12:27:52.049Z,7.33
2019-04-16T12:30:23.229Z,6.70
2019-04-16T12:33:08.754Z,6.90
2019-04-16T12:35:57.358Z,5.73
2019-04-16T12:38:29.059Z,6.37
2019-04-16T12:41:00.151Z,6.90
2019-04-16T12:43:34.303Z,6.53
2019-04-16T12:46:08.886Z,5.20
2019-04-16T12:48:40.037Z,7.57
2019-04-16T12:51:11.078Z,6.13
2019-04-16T12:53:44.991Z,6.33
2019-04-16T12:56:32.670Z,4.60
2019-04-16T12:59:04.026Z,6.10
2019-04-16T13:01:47.144Z,5.87
2019-04-16T13:04:18.266Z,5.80
2019-04-16T13:07:05.768Z,5.73
2019-04-16T13:09:39.637Z,5.90
2019-04-16T13:12:27.093Z,6.70
2019-04-16T13:15:16.415Z,5.70
2019-04-16T13:17:59.419Z,6.33
2019-04-16T13:20:33.557Z,4.97
2019-04-16T13:23:21.105Z,5.33
2019-04-16T13:25:52.195Z,5.73
2019-04-16T13:31:09.061Z,6.63
2019-04-16T13:33:40.114Z,6.03
2019-04-16T13:36:09.686Z,6.07
2019-04-16T13:38:43.827Z,6.40
2019-04-16T13:41:13.435Z,5.70
2019-04-16T13:43:56.680Z,5.63
2019-04-16T13:46:29.284Z,5.57
2019-04-16T13:49:01.589Z,4.47
2019-04-16T13:51:32.110Z,5.47
2019-04-16T13:54:09.204Z,6.40
2019-04-16T13:56:40.357Z,5.07
2019-04-16T13:59:17.330Z,5.40
2019-04-16T14:01:54.411Z,6.27
2019-04-16T14:04:24.022Z,5.03
2019-04-16T14:06:53.613Z,6.13
2019-04-16T14:09:23.221Z,5.30
2019-04-16T14:11:52.826Z,6.00
2019-04-16T14:14:23.984Z,5.27
2019-04-16T14:16:53.576Z,5.63
2019-04-16T14:19:23.180Z,6.27
2019-04-16T14:21:52.703Z,6.80
2019-04-16T14:24:22.294Z,5.83
2019-04-16T14:26:51.902Z,5.53
2019-04-16T14:29:24.761Z,6.50
2019-04-16T14:31:52.589Z,7.07
2019-04-16T14:34:23.722Z,6.67
2019-04-16T14:36:56.782Z,5.50
2019-04-16T14:39:31.882Z,6.70
2019-04-16T14:42:01.412Z,6.53
2019-04-16T14:44:38.630Z,6.30
2019-04-16T14:47:08.149Z,6.03
2019-04-16T14:49:37.620Z,6.80
2019-04-16T14:52:07.336Z,6.20
2019-04-16T14:54:54.582Z,6.90
2019-04-16T14:57:24.145Z,5.87
2019-04-16T14:59:58.172Z,6.47
2019-04-16T15:02:31.967Z,6.83
2019-04-16T15:05:03.327Z,7.10
2019-04-16T15:07:34.648Z,6.80
2019-04-16T15:10:23.967Z,6.93
2019-04-16T15:12:57.528Z,6.80
2019-04-16T15:15:34.715Z,7.33
2019-04-16T15:18:18.126Z,6.50
2019-04-16T15:20:55.980Z,6.07
2019-04-16T15:23:43.050Z,6.27
2019-04-16T15:26:29.492Z,6.57
2019-04-16T15:29:00.704Z,5.93
2019-04-16T15:31:49.995Z,5.53
2019-04-16T15:34:24.240Z,5.57
2019-04-16T15:37:11.896Z,5.80
2019-04-16T15:39:45.688Z,6.07
2019-04-16T15:42:25.479Z,5.93
2019-04-16T15:44:59.735Z,5.37
2019-04-16T15:47:32.358Z,6.40
2019-04-16T15:50:06.482Z,5.70
2019-04-16T15:52:56.972Z,5.80
2019-04-16T15:55:30.981Z,5.90
2019-04-16T15:58:20.480Z,6.50
2019-04-16T16:00:54.958Z,6.80
2019-04-16T16:03:29.089Z,6.53
2019-04-16T16:06:00.202Z,6.27
2019-04-16T16:08:35.834Z,6.80
2019-04-16T16:11:18.925Z,6.30
2019-04-16T16:13:48.424Z,6.13
2019-04-16T16:16:18.963Z,5.77
2019-04-16T16:18:50.098Z,6.07
2019-04-16T16:21:21.343Z,6.57
2019-04-16T16:23:50.820Z,6.30
2019-04-16T16:26:20.280Z,7.20
2019-04-16T16:28:49.843Z,6.97
2019-04-16T16:31:19.330Z,6.97
2019-04-16T16:33:48.844Z,6.13
2019-04-16T16:36:18.337Z,6.50
2019-04-16T16:38:49.251Z,7.13
2019-04-16T16:41:18.808Z,6.40
2019-04-16T16:43:48.298Z,7.57
2019-04-16T16:46:22.031Z,5.43
2019-04-16T16:48:53.219Z,7.37
2019-04-16T16:51:23.223Z,7.30
2019-04-16T16:54:10.701Z,6.40
2019-04-16T16:56:44.510Z,6.50
2019-04-16T16:59:27.545Z,7.20
2019-04-16T17:02:14.809Z,7.30
2019-04-16T17:04:45.983Z,6.93
2019-04-16T17:07:17.674Z,7.70
2019-04-16T17:09:46.831Z,6.87
2019-04-16T17:12:16.337Z,6.57
2019-04-16T17:14:45.791Z,6.10
2019-04-16T17:17:15.423Z,6.17
2019-04-16T17:19:45.047Z,6.80
2019-04-16T17:22:17.411Z,6.77
2019-04-16T17:24:46.075Z,5.97
2019-04-16T17:27:15.614Z,6.33
2019-04-16T17:29:46.670Z,7.20
2019-04-16T17:32:16.353Z,5.70
2019-04-16T17:34:45.836Z,6.00
2019-04-16T17:37:15.441Z,6.03
2019-04-16T17:39:46.591Z,6.83
2019-04-16T17:42:17.702Z,6.37
2019-04-16T17:44:55.043Z,6.13
2019-04-16T17:47:32.636Z,5.60
2019-04-16T17:50:04.964Z,6.70
2019-04-16T17:52:36.181Z,8.50
2019-04-16T17:55:16.893Z,8.53
2019-04-16T17:58:00.052Z,9.80
2019-04-16T18:00:43.061Z,8.77
2019-04-16T18:03:16.647Z,9.73
2019-04-16T18:05:53.456Z,10.53
2019-04-16T18:08:40.720Z,11.43
2019-04-16T18:11:11.832Z,9.97
2019-04-16T18:13:58.220Z,12.17
2019-04-16T18:16:29.605Z,10.33
2019-04-16T18:19:15.920Z,11.27
2019-04-16T18:21:50.138Z,9.07
2019-04-16T18:24:21.303Z,11.17
2019-04-16T18:27:01.348Z,11.97
2019-04-16T18:29:44.589Z,11.33
2019-04-16T18:32:23.002Z,10.27
2019-04-16T18:34:54.142Z,7.30
2019-04-16T18:37:37.179Z,11.00
2019-04-16T18:40:18.703Z,10.90
2019-04-16T18:43:05.831Z,14.23
2019-04-16T18:45:55.830Z,10.93
2019-04-16T18:48:34.996Z,14.70
2019-04-16T18:51:04.606Z,14.70
2019-04-16T18:53:34.081Z,11.47
2019-04-16T18:56:03.573Z,11.10
2019-04-16T18:58:33.070Z,14.40
2019-04-16T19:01:04.185Z,15.37
2019-04-16T19:03:33.791Z,9.00
2019-04-16T19:06:03.436Z,15.87
2019-04-16T19:08:41.554Z,15.70
2019-04-16T19:11:04.834Z,15.80
2019-04-16T19:13:34.436Z,15.93
2019-04-16T19:16:05.550Z,16.00
2019-04-16T19:18:35.019Z,15.60
2019-04-16T19:21:04.524Z,17.63
2019-04-16T19:23:33.995Z,16.00
2019-04-16T19:26:05.540Z,17.50
2019-04-16T19:28:36.263Z,13.97
2019-04-16T19:31:06.370Z,15.67
2019-04-16T19:33:38.356Z,18.00
2019-04-16T19:36:07.159Z,15.33
2019-04-16T19:38:39.402Z,14.17
2019-04-16T19:41:07.837Z,14.80
2019-04-16T19:43:37.384Z,16.47
2019-04-16T19:46:06.851Z,14.60
2019-04-16T19:48:36.514Z,15.03
2019-04-16T19:51:07.206Z,14.67
2019-04-16T19:53:37.197Z,14.07
2019-04-16T19:56:06.742Z,13.80
2019-04-16T19:58:36.212Z,12.97
2019-04-16T20:01:06.184Z,13.13
2019-04-16T20:03:35.745Z,14.67
2019-04-16T20:06:05.855Z,14.00
2019-04-16T20:08:39.902Z,12.23
2019-04-16T20:11:06.774Z,12.70
2019-04-16T20:13:38.352Z,12.63
2019-04-16T20:16:07.878Z,12.87
2019-04-16T20:18:50.955Z,10.83
2019-04-16T20:21:10.853Z,11.27
2019-04-16T20:23:41.646Z,14.30
2019-04-16T20:26:11.164Z,13.00
2019-04-16T20:28:40.650Z,12.00
2019-04-16T20:31:11.688Z,11.70
2019-04-16T20:33:41.182Z,11.87
2019-04-16T20:36:10.658Z,11.37
2019-04-16T20:38:40.134Z,10.87
2019-04-16T20:41:10.025Z,9.97
2019-04-16T20:43:39.507Z,9.30
2019-04-16T20:46:08.979Z,9.50
2019-04-16T20:48:38.485Z,9.00
2019-04-16T20:51:08.553Z,10.77
2019-04-16T20:53:40.797Z,9.07
2019-04-16T20:56:10.694Z,8.57
2019-04-16T20:58:40.411Z,9.60
2019-04-16T21:01:09.924Z,9.53
2019-04-16T21:03:39.384Z,9.37
2019-04-16T21:06:09.625Z,9.80
2019-04-16T21:08:39.341Z,8.97
2019-04-16T21:11:09.709Z,9.40
2019-04-16T21:13:39.326Z,9.43
2019-04-16T21:16:08.773Z,9.43
2019-04-16T21:18:38.248Z,9.63
2019-04-16T21:21:07.957Z,9.00
2019-04-16T21:23:37.400Z,9.30
2019-04-16T21:26:06.874Z,10.10
2019-04-16T21:28:49.961Z,10.80
2019-04-16T21:31:27.074Z,9.57
2019-04-16T21:34:16.643Z,9.93
2019-04-16T21:36:50.703Z,9.77
2019-04-16T21:39:24.369Z,10.17
2019-04-16T21:41:53.823Z,8.37
2019-04-16T21:44:24.879Z,8.33
2019-04-16T21:46:57.582Z,8.60
2019-04-16T21:49:37.700Z,8.43
2019-04-16T21:52:08.461Z,8.23
2019-04-16T21:54:39.421Z,8.33
2019-04-16T21:57:13.153Z,8.53
2019-04-16T21:59:40.127Z,7.07
2019-04-16T22:02:15.152Z,8.53
2019-04-16T22:04:45.424Z,7.77
2019-04-16T22:07:15.542Z,7.37
2019-04-16T22:09:44.989Z,7.97
2019-04-16T22:12:15.555Z,7.57
2019-04-16T22:14:46.001Z,7.70
2019-04-16T22:17:15.449Z,10.90
2019-04-16T22:19:53.899Z,6.80
2019-04-16T22:22:16.120Z,7.40
2019-04-16T22:24:45.559Z,7.40
2019-04-16T22:27:15.039Z,7.40
2019-04-16T22:29:47.319Z,8.40
2019-04-16T22:32:15.657Z,8.47
2019-04-16T22:34:45.130Z,7.20
2019-04-16T22:37:14.589Z,8.03
2019-04-16T22:39:56.211Z,8.97
2019-04-16T22:42:29.616Z,9.33
2019-04-16T22:45:16.794Z,9.30
2019-04-16T22:47:52.620Z,9.07
2019-04-16T22:50:22.077Z,7.13
2019-04-16T22:52:51.589Z,8.43
2019-04-16T22:55:24.405Z,7.80
2019-04-16T22:57:52.232Z,8.40
2019-04-16T23:00:23.416Z,8.13
2019-04-16T23:02:53.868Z,9.20
2019-04-16T23:05:23.330Z,8.20
2019-04-16T23:07:52.821Z,7.77
2019-04-16T23:10:22.256Z,8.23
2019-04-16T23:12:51.736Z,9.10
2019-04-16T23:15:21.172Z,8.73
2019-04-16T23:17:50.640Z,6.83
2019-04-16T23:20:29.068Z,7.30
2019-04-16T23:22:51.283Z,9.20
2019-04-16T23:25:20.744Z,7.97
2019-04-16T23:27:50.186Z,8.90
2019-04-16T23:30:19.651Z,6.93
2019-04-16T23:32:49.126Z,8.77
2019-04-16T23:35:18.604Z,9.13
2019-04-16T23:37:48.045Z,9.40
2019-04-16T23:40:17.529Z,7.20
2019-04-16T23:42:54.768Z,6.97
2019-04-16T23:45:31.419Z,7.50
2019-04-16T23:48:14.702Z,7.57
2019-04-16T23:50:45.342Z,10.17
2019-04-16T23:53:16.071Z,10.60
2019-04-16T23:55:48.790Z,10.47
2019-04-16T23:58:28.165Z,9.87
